sensor_id;sensor_type;location;lat;lon;timestamp;P1;durP1;ratioP1;P2;durP2;ratioP2
59207;SDS011;44977;53.132;6.408;2023-04-29T00:00:46;39.03;;;30.02;;
59207;SDS011;44977;53.132;6.408;2023-04-29T00:05:46;39.30;;;31.33;;
59207;SDS011;44977;53.132;6.408;2023-04-29T00:10:47;38.88;;;30.85;;
59207;SDS011;44977;53.132;6.408;2023-04-29T00:15:48;39.45;;;29.30;;
59207;SDS011;44977;53.132;6.408;2023-04-29T00:20:49;34.95;;;28.75;;
59207;SDS011;44977;53.132;6.408;2023-04-29T00:25:50;43.05;;;29.70;;
59207;SDS011;44977;53.132;6.408;2023-04-29T00:30:52;36.63;;;28.92;;
59207;SDS011;44977;53.132;6.408;2023-04-29T00:35:53;33.88;;;25.30;;
59207;SDS011;44977;53.132;6.408;2023-04-29T00:40:54;35.75;;;26.27;;
59207;SDS011;44977;53.132;6.408;2023-04-29T00:45:55;32.38;;;24.65;;
59207;SDS011;44977;53.132;6.408;2023-04-29T00:50:55;33.60;;;24.15;;
59207;SDS011;44977;53.132;6.408;2023-04-29T00:55:56;33.55;;;24.70;;
59207;SDS011;44977;53.132;6.408;2023-04-29T01:01:01;30.33;;;22.45;;
59207;SDS011;44977;53.132;6.408;2023-04-29T01:06:12;32.88;;;24.33;;
59207;SDS011;44977;53.132;6.408;2023-04-29T01:11:18;28.45;;;24.10;;
59207;SDS011;44977;53.132;6.408;2023-04-29T01:21:31;30.17;;;22.77;;
59207;SDS011;44977;53.132;6.408;2023-04-29T01:26:32;28.38;;;22.15;;
59207;SDS011;44977;53.132;6.408;2023-04-29T01:31:37;31.23;;;21.88;;
59207;SDS011;44977;53.132;6.408;2023-04-29T01:37:04;27.25;;;21.88;;
59207;SDS011;44977;53.132;6.408;2023-04-29T01:42:19;29.70;;;21.88;;
59207;SDS011;44977;53.132;6.408;2023-04-29T01:47:25;27.83;;;21.45;;
59207;SDS011;44977;53.132;6.408;2023-04-29T01:52:28;29.48;;;21.77;;
59207;SDS011;44977;53.132;6.408;2023-04-29T01:57:29;29.38;;;22.40;;
59207;SDS011;44977;53.132;6.408;2023-04-29T02:02:30;28.08;;;21.65;;
59207;SDS011;44977;53.132;6.408;2023-04-29T02:07:30;30.05;;;22.30;;
59207;SDS011;44977;53.132;6.408;2023-04-29T02:12:31;26.30;;;22.20;;
59207;SDS011;44977;53.132;6.408;2023-04-29T02:17:32;29.40;;;22.25;;
59207;SDS011;44977;53.132;6.408;2023-04-29T02:22:33;28.88;;;23.33;;
59207;SDS011;44977;53.132;6.408;2023-04-29T02:27:34;28.35;;;22.48;;
59207;SDS011;44977;53.132;6.408;2023-04-29T02:32:34;29.75;;;22.33;;
59207;SDS011;44977;53.132;6.408;2023-04-29T02:37:35;29.80;;;23.40;;
59207;SDS011;44977;53.132;6.408;2023-04-29T02:42:36;27.60;;;22.52;;
59207;SDS011;44977;53.132;6.408;2023-04-29T02:47:37;27.55;;;23.45;;
59207;SDS011;44977;53.132;6.408;2023-04-29T02:52:38;33.58;;;24.73;;
59207;SDS011;44977;53.132;6.408;2023-04-29T02:57:40;32.70;;;24.35;;
59207;SDS011;44977;53.132;6.408;2023-04-29T03:02:42;34.25;;;26.17;;
59207;SDS011;44977;53.132;6.408;2023-04-29T03:07:42;34.97;;;26.83;;
59207;SDS011;44977;53.132;6.408;2023-04-29T03:12:43;36.05;;;25.23;;
59207;SDS011;44977;53.132;6.408;2023-04-29T03:17:44;31.63;;;23.38;;
59207;SDS011;44977;53.132;6.408;2023-04-29T03:22:45;30.20;;;21.80;;
59207;SDS011;44977;53.132;6.408;2023-04-29T03:27:46;27.17;;;19.83;;
59207;SDS011;44977;53.132;6.408;2023-04-29T03:32:46;29.30;;;20.10;;
59207;SDS011;44977;53.132;6.408;2023-04-29T03:37:47;29.20;;;19.52;;
59207;SDS011;44977;53.132;6.408;2023-04-29T03:42:48;27.50;;;18.55;;
59207;SDS011;44977;53.132;6.408;2023-04-29T03:47:48;26.50;;;18.90;;
59207;SDS011;44977;53.132;6.408;2023-04-29T03:52:49;30.50;;;18.60;;
59207;SDS011;44977;53.132;6.408;2023-04-29T03:57:50;28.90;;;18.60;;
59207;SDS011;44977;53.132;6.408;2023-04-29T04:02:51;27.88;;;19.13;;
59207;SDS011;44977;53.132;6.408;2023-04-29T04:07:51;25.10;;;17.60;;
59207;SDS011;44977;53.132;6.408;2023-04-29T04:12:52;27.38;;;19.90;;
59207;SDS011;44977;53.132;6.408;2023-04-29T04:17:53;28.10;;;20.75;;
59207;SDS011;44977;53.132;6.408;2023-04-29T04:22:54;30.67;;;20.88;;
59207;SDS011;44977;53.132;6.408;2023-04-29T04:27:54;31.10;;;20.15;;
59207;SDS011;44977;53.132;6.408;2023-04-29T04:32:55;27.00;;;19.38;;
59207;SDS011;44977;53.132;6.408;2023-04-29T04:37:56;27.35;;;18.20;;
59207;SDS011;44977;53.132;6.408;2023-04-29T04:42:57;23.75;;;17.33;;
59207;SDS011;44977;53.132;6.408;2023-04-29T04:47:58;22.52;;;15.65;;
59207;SDS011;44977;53.132;6.408;2023-04-29T04:52:59;24.52;;;15.52;;
59207;SDS011;44977;53.132;6.408;2023-04-29T04:57:59;19.35;;;14.38;;
59207;SDS011;44977;53.132;6.408;2023-04-29T05:03:00;20.30;;;14.00;;
59207;SDS011;44977;53.132;6.408;2023-04-29T05:08:01;21.35;;;13.40;;
59207;SDS011;44977;53.132;6.408;2023-04-29T05:13:01;22.25;;;14.13;;
59207;SDS011;44977;53.132;6.408;2023-04-29T05:18:02;18.23;;;12.65;;
59207;SDS011;44977;53.132;6.408;2023-04-29T05:23:03;21.13;;;13.05;;
59207;SDS011;44977;53.132;6.408;2023-04-29T05:28:04;21.88;;;13.52;;
59207;SDS011;44977;53.132;6.408;2023-04-29T05:33:04;20.77;;;13.40;;
59207;SDS011;44977;53.132;6.408;2023-04-29T05:38:05;18.20;;;12.88;;
59207;SDS011;44977;53.132;6.408;2023-04-29T05:43:06;19.65;;;12.57;;
59207;SDS011;44977;53.132;6.408;2023-04-29T05:48:06;17.90;;;12.18;;
59207;SDS011;44977;53.132;6.408;2023-04-29T05:53:07;18.92;;;12.55;;
59207;SDS011;44977;53.132;6.408;2023-04-29T05:58:08;16.92;;;11.95;;
59207;SDS011;44977;53.132;6.408;2023-04-29T06:03:09;19.02;;;12.32;;
59207;SDS011;44977;53.132;6.408;2023-04-29T06:08:10;20.05;;;13.15;;
59207;SDS011;44977;53.132;6.408;2023-04-29T06:13:11;18.98;;;12.80;;
59207;SDS011;44977;53.132;6.408;2023-04-29T06:18:12;20.38;;;12.38;;
59207;SDS011;44977;53.132;6.408;2023-04-29T06:23:13;17.95;;;12.68;;
59207;SDS011;44977;53.132;6.408;2023-04-29T06:28:13;19.02;;;12.18;;
59207;SDS011;44977;53.132;6.408;2023-04-29T06:33:14;20.05;;;11.75;;
59207;SDS011;44977;53.132;6.408;2023-04-29T06:38:15;18.17;;;12.45;;
59207;SDS011;44977;53.132;6.408;2023-04-29T06:43:16;19.75;;;12.52;;
59207;SDS011;44977;53.132;6.408;2023-04-29T06:48:17;16.77;;;11.35;;
59207;SDS011;44977;53.132;6.408;2023-04-29T06:53:17;15.23;;;10.82;;
59207;SDS011;44977;53.132;6.408;2023-04-29T06:58:18;19.27;;;10.95;;
59207;SDS011;44977;53.132;6.408;2023-04-29T07:03:19;17.73;;;10.68;;
59207;SDS011;44977;53.132;6.408;2023-04-29T07:08:20;17.08;;;10.45;;
59207;SDS011;44977;53.132;6.408;2023-04-29T07:13:21;15.68;;;9.95;;
59207;SDS011;44977;53.132;6.408;2023-04-29T07:18:22;15.93;;;10.88;;
59207;SDS011;44977;53.132;6.408;2023-04-29T07:23:22;14.30;;;9.82;;
59207;SDS011;44977;53.132;6.408;2023-04-29T07:28:23;15.07;;;9.60;;
59207;SDS011;44977;53.132;6.408;2023-04-29T07:33:24;15.90;;;9.02;;
59207;SDS011;44977;53.132;6.408;2023-04-29T07:38:24;15.38;;;9.13;;
59207;SDS011;44977;53.132;6.408;2023-04-29T07:43:25;14.60;;;8.55;;
59207;SDS011;44977;53.132;6.408;2023-04-29T07:48:26;13.23;;;7.93;;
59207;SDS011;44977;53.132;6.408;2023-04-29T07:53:26;12.98;;;8.02;;
59207;SDS011;44977;53.132;6.408;2023-04-29T07:58:27;13.95;;;7.63;;
59207;SDS011;44977;53.132;6.408;2023-04-29T08:03:28;12.90;;;7.78;;
59207;SDS011;44977;53.132;6.408;2023-04-29T08:08:31;15.82;;;8.15;;
59207;SDS011;44977;53.132;6.408;2023-04-29T08:13:32;14.27;;;7.88;;
59207;SDS011;44977;53.132;6.408;2023-04-29T08:18:33;13.18;;;7.32;;
59207;SDS011;44977;53.132;6.408;2023-04-29T08:23:33;13.50;;;7.68;;
59207;SDS011;44977;53.132;6.408;2023-04-29T08:28:34;13.57;;;6.72;;
59207;SDS011;44977;53.132;6.408;2023-04-29T08:33:35;12.25;;;7.00;;
59207;SDS011;44977;53.132;6.408;2023-04-29T08:38:36;10.38;;;6.68;;
59207;SDS011;44977;53.132;6.408;2023-04-29T08:43:37;10.90;;;6.35;;
59207;SDS011;44977;53.132;6.408;2023-04-29T08:48:39;12.73;;;6.47;;
59207;SDS011;44977;53.132;6.408;2023-04-29T08:53:41;12.13;;;6.53;;
59207;SDS011;44977;53.132;6.408;2023-04-29T08:58:41;11.55;;;6.57;;
59207;SDS011;44977;53.132;6.408;2023-04-29T09:03:43;11.63;;;6.38;;
59207;SDS011;44977;53.132;6.408;2023-04-29T09:08:51;11.07;;;6.20;;
59207;SDS011;44977;53.132;6.408;2023-04-29T09:13:57;9.60;;;5.70;;
59207;SDS011;44977;53.132;6.408;2023-04-29T09:19:00;11.65;;;5.35;;
59207;SDS011;44977;53.132;6.408;2023-04-29T09:24:01;11.35;;;6.20;;
59207;SDS011;44977;53.132;6.408;2023-04-29T09:29:06;11.15;;;6.03;;
59207;SDS011;44977;53.132;6.408;2023-04-29T09:34:10;10.75;;;6.38;;
59207;SDS011;44977;53.132;6.408;2023-04-29T09:39:12;9.95;;;5.85;;
59207;SDS011;44977;53.132;6.408;2023-04-29T09:44:15;10.77;;;5.95;;
59207;SDS011;44977;53.132;6.408;2023-04-29T09:49:26;10.57;;;5.85;;
59207;SDS011;44977;53.132;6.408;2023-04-29T09:54:29;10.60;;;6.60;;
59207;SDS011;44977;53.132;6.408;2023-04-29T09:59:31;11.95;;;6.60;;
59207;SDS011;44977;53.132;6.408;2023-04-29T10:04:35;12.82;;;6.53;;
59207;SDS011;44977;53.132;6.408;2023-04-29T10:09:39;10.02;;;6.15;;
59207;SDS011;44977;53.132;6.408;2023-04-29T10:15:02;9.98;;;5.70;;
59207;SDS011;44977;53.132;6.408;2023-04-29T10:20:23;10.18;;;6.65;;
59207;SDS011;44977;53.132;6.408;2023-04-29T10:25:25;10.77;;;5.75;;
59207;SDS011;44977;53.132;6.408;2023-04-29T10:30:27;12.57;;;6.68;;
59207;SDS011;44977;53.132;6.408;2023-04-29T10:35:28;11.60;;;6.25;;
59207;SDS011;44977;53.132;6.408;2023-04-29T10:45:30;9.45;;;5.22;;
59207;SDS011;44977;53.132;6.408;2023-04-29T10:55:47;7.35;;;4.05;;
59207;SDS011;44977;53.132;6.408;2023-04-29T11:00:53;7.53;;;3.70;;
59207;SDS011;44977;53.132;6.408;2023-04-29T11:06:02;7.45;;;3.58;;
59207;SDS011;44977;53.132;6.408;2023-04-29T11:11:08;8.38;;;3.13;;
59207;SDS011;44977;53.132;6.408;2023-04-29T11:16:09;6.22;;;2.80;;
59207;SDS011;44977;53.132;6.408;2023-04-29T11:21:10;7.72;;;3.25;;
59207;SDS011;44977;53.132;6.408;2023-04-29T11:26:12;6.93;;;2.80;;
59207;SDS011;44977;53.132;6.408;2023-04-29T11:31:14;6.82;;;2.75;;
59207;SDS011;44977;53.132;6.408;2023-04-29T11:36:14;6.90;;;2.40;;
59207;SDS011;44977;53.132;6.408;2023-04-29T11:41:15;7.07;;;2.90;;
59207;SDS011;44977;53.132;6.408;2023-04-29T11:46:16;5.72;;;2.88;;
59207;SDS011;44977;53.132;6.408;2023-04-29T11:51:17;8.23;;;3.25;;
59207;SDS011;44977;53.132;6.408;2023-04-29T11:56:22;6.93;;;3.30;;
59207;SDS011;44977;53.132;6.408;2023-04-29T12:01:25;8.90;;;3.53;;
59207;SDS011;44977;53.132;6.408;2023-04-29T12:06:26;6.28;;;3.20;;
59207;SDS011;44977;53.132;6.408;2023-04-29T12:11:29;6.60;;;3.00;;
59207;SDS011;44977;53.132;6.408;2023-04-29T12:16:30;8.48;;;3.05;;
59207;SDS011;44977;53.132;6.408;2023-04-29T12:21:34;8.23;;;2.70;;
59207;SDS011;44977;53.132;6.408;2023-04-29T12:26:36;7.07;;;2.40;;
59207;SDS011;44977;53.132;6.408;2023-04-29T12:31:40;6.60;;;2.55;;
59207;SDS011;44977;53.132;6.408;2023-04-29T12:36:43;5.60;;;2.42;;
59207;SDS011;44977;53.132;6.408;2023-04-29T12:41:43;7.28;;;2.60;;
59207;SDS011;44977;53.132;6.408;2023-04-29T12:46:44;6.30;;;2.30;;
59207;SDS011;44977;53.132;6.408;2023-04-29T12:51:45;6.30;;;2.35;;
59207;SDS011;44977;53.132;6.408;2023-04-29T12:56:46;5.45;;;1.85;;
59207;SDS011;44977;53.132;6.408;2023-04-29T13:01:47;5.50;;;2.22;;
59207;SDS011;44977;53.132;6.408;2023-04-29T13:06:48;4.50;;;1.83;;
59207;SDS011;44977;53.132;6.408;2023-04-29T13:11:53;4.63;;;2.10;;
59207;SDS011;44977;53.132;6.408;2023-04-29T13:16:53;5.20;;;2.15;;
59207;SDS011;44977;53.132;6.408;2023-04-29T13:21:54;4.97;;;1.90;;
59207;SDS011;44977;53.132;6.408;2023-04-29T13:26:55;5.20;;;2.13;;
59207;SDS011;44977;53.132;6.408;2023-04-29T13:31:57;3.55;;;2.10;;
59207;SDS011;44977;53.132;6.408;2023-04-29T13:36:57;6.53;;;2.60;;
59207;SDS011;44977;53.132;6.408;2023-04-29T13:41:58;7.18;;;3.15;;
59207;SDS011;44977;53.132;6.408;2023-04-29T13:46:59;7.40;;;4.10;;
59207;SDS011;44977;53.132;6.408;2023-04-29T13:52:00;9.15;;;4.45;;
59207;SDS011;44977;53.132;6.408;2023-04-29T13:57:01;8.20;;;4.78;;
59207;SDS011;44977;53.132;6.408;2023-04-29T14:02:03;9.60;;;6.05;;
59207;SDS011;44977;53.132;6.408;2023-04-29T14:07:03;9.88;;;6.00;;
59207;SDS011;44977;53.132;6.408;2023-04-29T14:12:04;10.90;;;6.63;;
59207;SDS011;44977;53.132;6.408;2023-04-29T14:17:05;10.80;;;6.80;;
59207;SDS011;44977;53.132;6.408;2023-04-29T14:22:06;12.75;;;7.10;;
59207;SDS011;44977;53.132;6.408;2023-04-29T14:27:07;12.23;;;7.65;;
59207;SDS011;44977;53.132;6.408;2023-04-29T14:32:07;11.55;;;7.57;;
59207;SDS011;44977;53.132;6.408;2023-04-29T14:37:08;12.27;;;7.47;;
59207;SDS011;44977;53.132;6.408;2023-04-29T14:42:09;12.32;;;6.70;;
59207;SDS011;44977;53.132;6.408;2023-04-29T14:47:10;12.20;;;7.22;;
59207;SDS011;44977;53.132;6.408;2023-04-29T14:52:11;10.93;;;5.80;;
59207;SDS011;44977;53.132;6.408;2023-04-29T14:57:12;8.85;;;5.18;;
59207;SDS011;44977;53.132;6.408;2023-04-29T15:02:12;8.35;;;4.75;;
59207;SDS011;44977;53.132;6.408;2023-04-29T15:07:13;9.30;;;4.80;;
59207;SDS011;44977;53.132;6.408;2023-04-29T15:12:15;8.25;;;5.22;;
59207;SDS011;44977;53.132;6.408;2023-04-29T15:17:17;9.10;;;5.30;;
59207;SDS011;44977;53.132;6.408;2023-04-29T15:22:17;11.40;;;6.90;;
59207;SDS011;44977;53.132;6.408;2023-04-29T15:27:18;11.35;;;6.20;;
59207;SDS011;44977;53.132;6.408;2023-04-29T15:32:20;13.45;;;7.47;;
59207;SDS011;44977;53.132;6.408;2023-04-29T15:37:20;10.15;;;6.47;;
59207;SDS011;44977;53.132;6.408;2023-04-29T15:42:21;13.13;;;6.90;;
59207;SDS011;44977;53.132;6.408;2023-04-29T15:47:22;11.18;;;6.13;;
59207;SDS011;44977;53.132;6.408;2023-04-29T15:52:22;11.48;;;6.40;;
59207;SDS011;44977;53.132;6.408;2023-04-29T15:57:23;9.50;;;5.82;;
59207;SDS011;44977;53.132;6.408;2023-04-29T16:02:24;9.73;;;4.82;;
59207;SDS011;44977;53.132;6.408;2023-04-29T16:07:25;8.75;;;4.63;;
59207;SDS011;44977;53.132;6.408;2023-04-29T16:12:26;9.32;;;4.47;;
59207;SDS011;44977;53.132;6.408;2023-04-29T16:17:27;9.18;;;4.60;;
59207;SDS011;44977;53.132;6.408;2023-04-29T16:22:28;9.98;;;4.10;;
59207;SDS011;44977;53.132;6.408;2023-04-29T16:27:30;8.32;;;3.97;;
59207;SDS011;44977;53.132;6.408;2023-04-29T16:32:30;9.27;;;4.50;;
59207;SDS011;44977;53.132;6.408;2023-04-29T16:37:32;9.23;;;3.90;;
59207;SDS011;44977;53.132;6.408;2023-04-29T16:42:32;7.90;;;4.30;;
59207;SDS011;44977;53.132;6.408;2023-04-29T16:47:33;8.80;;;4.90;;
59207;SDS011;44977;53.132;6.408;2023-04-29T16:52:35;9.05;;;4.65;;
59207;SDS011;44977;53.132;6.408;2023-04-29T16:57:36;8.02;;;4.28;;
59207;SDS011;44977;53.132;6.408;2023-04-29T17:02:37;8.93;;;4.60;;
59207;SDS011;44977;53.132;6.408;2023-04-29T17:07:41;10.73;;;6.13;;
59207;SDS011;44977;53.132;6.408;2023-04-29T17:12:42;8.52;;;4.63;;
59207;SDS011;44977;53.132;6.408;2023-04-29T17:17:43;7.75;;;4.22;;
59207;SDS011;44977;53.132;6.408;2023-04-29T17:22:44;10.32;;;3.65;;
59207;SDS011;44977;53.132;6.408;2023-04-29T17:27:44;8.75;;;3.80;;
59207;SDS011;44977;53.132;6.408;2023-04-29T17:32:45;7.53;;;3.50;;
59207;SDS011;44977;53.132;6.408;2023-04-29T17:37:48;7.70;;;3.92;;
59207;SDS011;44977;53.132;6.408;2023-04-29T17:42:49;7.55;;;3.83;;
59207;SDS011;44977;53.132;6.408;2023-04-29T17:47:49;7.38;;;3.75;;
59207;SDS011;44977;53.132;6.408;2023-04-29T17:52:50;8.75;;;4.20;;
59207;SDS011;44977;53.132;6.408;2023-04-29T17:57:51;9.43;;;4.30;;
59207;SDS011;44977;53.132;6.408;2023-04-29T18:02:53;9.55;;;4.55;;
59207;SDS011;44977;53.132;6.408;2023-04-29T18:07:54;7.22;;;4.30;;
59207;SDS011;44977;53.132;6.408;2023-04-29T18:12:55;7.43;;;3.83;;
59207;SDS011;44977;53.132;6.408;2023-04-29T18:17:56;6.88;;;3.92;;
59207;SDS011;44977;53.132;6.408;2023-04-29T18:22:57;6.85;;;4.25;;
59207;SDS011;44977;53.132;6.408;2023-04-29T18:27:57;8.95;;;4.45;;
59207;SDS011;44977;53.132;6.408;2023-04-29T18:33:01;8.15;;;4.20;;
59207;SDS011;44977;53.132;6.408;2023-04-29T18:38:02;6.95;;;4.63;;
59207;SDS011;44977;53.132;6.408;2023-04-29T18:43:03;7.82;;;4.15;;
59207;SDS011;44977;53.132;6.408;2023-04-29T18:48:03;12.52;;;5.70;;
59207;SDS011;44977;53.132;6.408;2023-04-29T18:53:05;13.10;;;5.95;;
59207;SDS011;44977;53.132;6.408;2023-04-29T18:58:07;10.52;;;5.10;;
59207;SDS011;44977;53.132;6.408;2023-04-29T19:03:08;13.63;;;5.40;;
59207;SDS011;44977;53.132;6.408;2023-04-29T19:08:09;11.02;;;4.72;;
59207;SDS011;44977;53.132;6.408;2023-04-29T19:13:09;13.32;;;5.68;;
59207;SDS011;44977;53.132;6.408;2023-04-29T19:18:10;11.13;;;5.32;;
59207;SDS011;44977;53.132;6.408;2023-04-29T19:23:11;11.00;;;5.32;;
59207;SDS011;44977;53.132;6.408;2023-04-29T19:28:11;10.80;;;5.22;;
59207;SDS011;44977;53.132;6.408;2023-04-29T19:33:12;12.38;;;5.63;;
59207;SDS011;44977;53.132;6.408;2023-04-29T19:38:13;13.02;;;5.35;;
59207;SDS011;44977;53.132;6.408;2023-04-29T19:43:14;10.05;;;4.60;;
59207;SDS011;44977;53.132;6.408;2023-04-29T19:48:15;12.10;;;5.43;;
59207;SDS011;44977;53.132;6.408;2023-04-29T19:53:16;12.18;;;5.32;;
59207;SDS011;44977;53.132;6.408;2023-04-29T19:58:17;10.52;;;5.13;;
59207;SDS011;44977;53.132;6.408;2023-04-29T20:03:17;11.10;;;5.38;;
59207;SDS011;44977;53.132;6.408;2023-04-29T20:08:18;11.20;;;5.22;;
59207;SDS011;44977;53.132;6.408;2023-04-29T20:13:19;11.07;;;5.28;;
59207;SDS011;44977;53.132;6.408;2023-04-29T20:18:19;11.20;;;5.25;;
59207;SDS011;44977;53.132;6.408;2023-04-29T20:23:20;13.43;;;6.30;;
59207;SDS011;44977;53.132;6.408;2023-04-29T20:28:21;11.60;;;6.10;;
59207;SDS011;44977;53.132;6.408;2023-04-29T20:33:22;12.15;;;5.72;;
59207;SDS011;44977;53.132;6.408;2023-04-29T20:38:23;13.48;;;5.20;;
59207;SDS011;44977;53.132;6.408;2023-04-29T20:43:24;12.25;;;5.00;;
59207;SDS011;44977;53.132;6.408;2023-04-29T20:48:25;10.90;;;4.60;;
59207;SDS011;44977;53.132;6.408;2023-04-29T20:53:27;12.50;;;5.38;;
59207;SDS011;44977;53.132;6.408;2023-04-29T20:58:28;10.88;;;5.10;;
59207;SDS011;44977;53.132;6.408;2023-04-29T21:03:28;13.15;;;5.57;;
59207;SDS011;44977;53.132;6.408;2023-04-29T21:08:29;12.68;;;5.13;;
59207;SDS011;44977;53.132;6.408;2023-04-29T21:13:30;12.25;;;5.47;;
59207;SDS011;44977;53.132;6.408;2023-04-29T21:18:31;9.68;;;4.95;;
59207;SDS011;44977;53.132;6.408;2023-04-29T21:23:31;12.85;;;4.70;;
59207;SDS011;44977;53.132;6.408;2023-04-29T21:28:32;11.23;;;5.40;;
59207;SDS011;44977;53.132;6.408;2023-04-29T21:33:33;13.43;;;5.38;;
59207;SDS011;44977;53.132;6.408;2023-04-29T21:38:34;13.27;;;5.38;;
59207;SDS011;44977;53.132;6.408;2023-04-29T21:43:34;10.55;;;4.40;;
59207;SDS011;44977;53.132;6.408;2023-04-29T21:48:35;10.80;;;4.70;;
59207;SDS011;44977;53.132;6.408;2023-04-29T21:53:36;11.40;;;5.22;;
59207;SDS011;44977;53.132;6.408;2023-04-29T21:58:37;11.20;;;4.63;;
59207;SDS011;44977;53.132;6.408;2023-04-29T22:03:38;12.90;;;4.18;;
59207;SDS011;44977;53.132;6.408;2023-04-29T22:08:38;9.75;;;3.67;;
59207;SDS011;44977;53.132;6.408;2023-04-29T22:13:39;11.80;;;4.22;;
59207;SDS011;44977;53.132;6.408;2023-04-29T22:18:41;10.57;;;4.25;;
59207;SDS011;44977;53.132;6.408;2023-04-29T22:23:41;11.00;;;4.72;;
59207;SDS011;44977;53.132;6.408;2023-04-29T22:28:42;10.52;;;3.88;;
59207;SDS011;44977;53.132;6.408;2023-04-29T22:33:43;10.60;;;4.25;;
59207;SDS011;44977;53.132;6.408;2023-04-29T22:38:44;8.82;;;3.88;;
59207;SDS011;44977;53.132;6.408;2023-04-29T22:43:44;10.48;;;4.15;;
59207;SDS011;44977;53.132;6.408;2023-04-29T22:48:45;10.60;;;4.38;;
59207;SDS011;44977;53.132;6.408;2023-04-29T22:53:46;12.13;;;4.40;;
59207;SDS011;44977;53.132;6.408;2023-04-29T22:58:46;10.85;;;4.70;;
59207;SDS011;44977;53.132;6.408;2023-04-29T23:03:47;11.70;;;4.05;;
59207;SDS011;44977;53.132;6.408;2023-04-29T23:08:48;11.23;;;4.55;;
59207;SDS011;44977;53.132;6.408;2023-04-29T23:13:48;10.45;;;4.18;;
59207;SDS011;44977;53.132;6.408;2023-04-29T23:18:51;9.57;;;4.15;;
59207;SDS011;44977;53.132;6.408;2023-04-29T23:23:52;11.65;;;4.53;;
59207;SDS011;44977;53.132;6.408;2023-04-29T23:28:53;10.82;;;4.00;;
59207;SDS011;44977;53.132;6.408;2023-04-29T23:33:54;8.38;;;3.47;;
59207;SDS011;44977;53.132;6.408;2023-04-29T23:38:54;11.60;;;4.35;;
59207;SDS011;44977;53.132;6.408;2023-04-29T23:43:55;7.75;;;3.90;;
59207;SDS011;44977;53.132;6.408;2023-04-29T23:49:00;10.10;;;4.38;;
59207;SDS011;44977;53.132;6.408;2023-04-29T23:54:00;10.40;;;4.20;;
59207;SDS011;44977;53.132;6.408;2023-04-29T23:59:01;11.27;;;5.00;;
